Time;durP1;ratioP1;P1;durP2;ratioP2;P2;SDS_P1;SDS_P2;PMS_P1;PMS_P2;Temp;Humidity;BMP_temperature;BMP_pressure;BME280_temperature;BME280_humidity;BME280_pressure;Samples;Min_cycle;Max_cycle;Signal;HPM_P1;HPM_P2
2023/01/19 00:02:19;;;;;;;8.30;5.80;;;-2.30;99.90;;;;;;5017308;28;20167;-86
2023/01/19 00:04:44;;;;;;;8.83;5.40;;;-2.20;99.90;;;;;;5017305;28;20195;-86
2023/01/19 00:07:10;;;;;;;11.90;6.00;;;-2.20;99.90;;;;;;5014327;28;20178;-86
2023/01/19 00:09:37;;;;;;;10.27;5.90;;;-2.20;99.90;;;;;;4996630;28;20182;-82
2023/01/19 00:12:03;;;;;;;9.77;5.60;;;-2.20;99.90;;;;;;5014067;28;20168;-86
2023/01/19 00:14:29;;;;;;;8.80;5.63;;;-2.20;99.90;;;;;;4996756;28;20210;-86
2023/01/19 00:16:55;;;;;;;8.40;5.23;;;-2.20;99.90;;;;;;4996709;28;20175;-86
2023/01/19 00:19:20;;;;;;;10.67;6.20;;;-2.20;99.90;;;;;;5014145;28;20241;-86
2023/01/19 00:21:46;;;;;;;9.20;5.77;;;-2.20;99.90;;;;;;4995748;28;20546;-86
2023/01/19 00:24:12;;;;;;;9.13;6.07;;;-2.20;99.90;;;;;;4996414;28;20167;-85
2023/01/19 00:26:39;;;;;;;8.93;5.80;;;-2.20;99.90;;;;;;4996416;28;20174;-86
2023/01/19 00:29:06;;;;;;;7.90;5.80;;;-2.10;99.90;;;;;;5014161;28;20174;-86
2023/01/19 00:31:35;;;;;;;10.30;5.73;;;-2.30;99.90;;;;;;4995911;28;20531;-86
2023/01/19 00:34:01;;;;;;;8.27;5.57;;;-2.30;99.90;;;;;;4995522;28;20179;-86
2023/01/19 00:36:26;;;;;;;9.63;5.97;;;-2.30;99.90;;;;;;4996317;28;20175;-86
2023/01/19 00:38:52;;;;;;;8.50;5.23;;;-2.30;99.90;;;;;;4996367;28;20649;-86
2023/01/19 00:41:17;;;;;;;7.83;5.00;;;-2.30;99.90;;;;;;5013657;28;20187;-86
2023/01/19 00:43:43;;;;;;;8.47;5.17;;;-2.30;99.90;;;;;;5013523;28;20182;-85
2023/01/19 00:46:09;;;;;;;9.90;5.60;;;-2.30;99.90;;;;;;5013537;28;20199;-86
2023/01/19 00:48:34;;;;;;;9.73;4.77;;;-2.30;99.90;;;;;;4995996;28;20724;-86
2023/01/19 00:51:00;;;;;;;7.23;4.83;;;-2.30;99.90;;;;;;4995956;28;20273;-86
2023/01/19 00:53:31;;;;;;;7.63;4.80;;;-2.30;99.90;;;;;;4996190;28;20183;-86
2023/01/19 00:55:56;;;;;;;8.67;5.27;;;-2.20;99.90;;;;;;4996076;28;20218;-86
2023/01/19 00:58:22;;;;;;;7.30;4.93;;;-2.20;99.90;;;;;;5013450;28;20222;-86
2023/01/19 01:00:48;;;;;;;9.33;5.17;;;-2.20;99.90;;;;;;5013128;28;20289;-85
2023/01/19 01:03:13;;;;;;;8.20;4.67;;;-2.20;99.90;;;;;;4995676;28;20179;-86
2023/01/19 01:05:41;;;;;;;8.23;4.73;;;-2.20;99.90;;;;;;5013414;28;20191;-86
2023/01/19 01:08:06;;;;;;;8.00;5.20;;;-2.20;99.90;;;;;;5012848;28;20266;-86
2023/01/19 01:10:32;;;;;;;7.20;4.70;;;-2.20;99.90;;;;;;5013101;28;20270;-86
2023/01/19 01:12:57;;;;;;;7.77;4.60;;;-2.20;99.90;;;;;;5013203;28;20254;-86
2023/01/19 01:15:25;;;;;;;8.50;4.43;;;-2.10;99.90;;;;;;5053047;22;20617;-85
2023/01/19 01:17:51;;;;;;;7.73;4.97;;;-2.10;99.90;;;;;;4995696;28;20217;-86
2023/01/19 01:20:24;;;;;;;10.30;5.07;;;-2.10;99.90;;;;;;5013007;28;20194;-86
2023/01/19 01:22:51;;;;;;;7.27;4.77;;;-2.10;99.90;;;;;;5004719;28;20178;-86
2023/01/19 01:25:21;;;;;;;7.87;4.50;;;-2.10;99.90;;;;;;4995226;28;20199;-86
2023/01/19 01:27:47;;;;;;;8.27;4.70;;;-2.10;99.90;;;;;;4995502;28;20525;-86
2023/01/19 01:30:13;;;;;;;8.83;4.47;;;-2.10;99.90;;;;;;5013154;28;20179;-86
2023/01/19 01:32:40;;;;;;;9.37;4.70;;;-2.10;99.90;;;;;;5012797;28;20246;-86
2023/01/19 01:35:08;;;;;;;8.57;4.83;;;-2.10;99.90;;;;;;5012754;28;20222;-86
2023/01/19 01:37:35;;;;;;;7.50;4.73;;;-2.10;99.90;;;;;;5012744;28;20334;-86
2023/01/19 01:40:01;;;;;;;6.73;4.60;;;-2.20;99.90;;;;;;4994881;28;20203;-86
2023/01/19 01:42:29;;;;;;;8.03;4.70;;;-2.20;99.90;;;;;;4995102;28;20530;-86
2023/01/19 01:45:00;;;;;;;9.40;4.70;;;-2.20;99.90;;;;;;5012711;28;20225;-86
2023/01/19 01:47:41;;;;;;;8.90;4.90;;;-2.30;99.90;;;;;;5012673;28;20172;-86
2023/01/19 01:50:26;;;;;;;11.30;5.10;;;-2.20;99.90;;;;;;5012328;28;20182;-86
2023/01/19 01:52:57;;;;;;;9.70;5.03;;;-2.20;99.90;;;;;;4994934;28;20179;-86
2023/01/19 01:55:25;;;;;;;9.33;5.27;;;-2.10;99.90;;;;;;4995059;28;20202;-87
2023/01/19 01:57:56;;;;;;;10.33;4.60;;;-2.10;99.90;;;;;;4994910;28;20179;-86
2023/01/19 02:00:22;;;;;;;8.60;4.80;;;-2.10;99.90;;;;;;4994672;28;20231;-86
2023/01/19 02:02:52;;;;;;;7.70;4.90;;;-2.10;99.90;;;;;;5012520;28;20178;-86
2023/01/19 02:05:28;;;;;;;8.87;4.63;;;-2.10;99.90;;;;;;5012165;28;20206;-86
2023/01/19 02:13:45;;;;;;;8.27;5.40;;;-2.10;99.90;;;;;;5012317;28;20185;-86
2023/01/19 02:16:12;;;;;;;6.80;4.30;;;-2.10;99.90;;;;;;4994445;28;20226;-86
2023/01/19 02:18:38;;;;;;;7.70;4.97;;;-2.20;99.90;;;;;;5011847;28;20179;-86
2023/01/19 02:21:25;;;;;;;7.57;4.53;;;-2.20;99.90;;;;;;4987746;28;20222;-85
2023/01/19 02:24:01;;;;;;;6.30;4.67;;;-2.20;99.90;;;;;;4988922;28;20178;-86
2023/01/19 02:26:32;;;;;;;9.60;5.17;;;-2.30;99.90;;;;;;4994755;28;20195;-86
2023/01/19 02:29:00;;;;;;;7.57;4.67;;;-2.30;99.90;;;;;;4994654;28;20198;-86
2023/01/19 02:31:28;;;;;;;7.17;4.90;;;-2.20;99.90;;;;;;4994457;28;20199;-86
2023/01/19 02:33:55;;;;;;;7.03;4.93;;;-2.20;99.90;;;;;;4994742;28;20580;-86
2023/01/19 02:36:26;;;;;;;7.53;4.87;;;-2.20;99.90;;;;;;4994626;28;20198;-86
2023/01/19 02:38:55;;;;;;;9.53;4.80;;;-2.20;99.90;;;;;;4994627;28;20175;-86
2023/01/19 02:41:27;;;;;;;7.63;4.50;;;-2.20;99.90;;;;;;4994350;28;20186;-87
2023/01/19 02:43:56;;;;;;;8.13;5.30;;;-2.20;99.90;;;;;;4994573;28;20171;-86
2023/01/19 02:46:21;;;;;;;10.43;5.07;;;-2.10;99.90;;;;;;4994293;28;20191;-86
2023/01/19 02:48:47;;;;;;;6.97;4.50;;;-2.10;99.90;;;;;;4994623;28;20174;-85
2023/01/19 02:51:16;;;;;;;10.40;4.73;;;-2.10;99.90;;;;;;4994267;28;20615;-86
2023/01/19 02:54:02;;;;;;;8.40;5.33;;;-2.10;99.90;;;;;;4994365;28;20206;-86
2023/01/19 02:56:43;;;;;;;8.70;4.67;;;-2.10;99.90;;;;;;4994529;28;20205;-87
2023/01/19 02:59:28;;;;;;;7.57;4.77;;;-2.20;99.90;;;;;;4994554;28;20636;-86
2023/01/19 03:02:07;;;;;;;8.10;4.77;;;-2.20;99.90;;;;;;4994435;28;20211;-86
2023/01/19 03:05:01;;;;;;;8.37;4.73;;;-2.20;99.90;;;;;;4994186;28;20305;-86
2023/01/19 03:07:32;;;;;;;8.10;4.97;;;-2.20;99.90;;;;;;4994433;28;20172;-87
2023/01/19 03:10:13;;;;;;;7.47;4.90;;;-2.20;99.90;;;;;;4994066;28;20198;-86
2023/01/19 03:12:51;;;;;;;8.43;4.77;;;-2.20;99.90;;;;;;4994171;28;20171;-86
2023/01/19 03:15:20;;;;;;;7.27;4.50;;;-2.10;99.90;;;;;;5011579;28;20214;-87
2023/01/19 03:17:48;;;;;;;9.40;4.70;;;-2.10;99.90;;;;;;4994185;28;20198;-86
2023/01/19 03:20:17;;;;;;;7.73;5.13;;;-2.10;99.90;;;;;;5011537;28;20207;-86
2023/01/19 03:22:44;;;;;;;7.17;4.77;;;-2.10;99.90;;;;;;4994367;28;20185;-86
2023/01/19 03:25:11;;;;;;;6.73;4.77;;;-2.10;99.90;;;;;;5011495;28;20617;-86
2023/01/19 03:27:40;;;;;;;8.53;5.17;;;-2.20;99.90;;;;;;4994071;28;20207;-86
2023/01/19 03:30:17;;;;;;;7.70;4.87;;;-2.30;99.90;;;;;;4993955;28;20175;-87
2023/01/19 03:32:48;;;;;;;7.63;4.90;;;-2.20;99.90;;;;;;5015233;28;20175;-87
2023/01/19 03:35:17;;;;;;;8.03;5.00;;;-2.20;99.90;;;;;;4997609;28;20191;-87
2023/01/19 03:37:46;;;;;;;9.20;5.43;;;-2.10;99.90;;;;;;4997597;28;20171;-86
2023/01/19 03:40:12;;;;;;;8.47;5.70;;;-2.10;99.90;;;;;;5014653;28;20199;-87
2023/01/19 03:42:39;;;;;;;10.87;6.00;;;-2.10;99.90;;;;;;4997248;28;20171;-87
2023/01/19 03:45:06;;;;;;;8.37;5.63;;;-2.10;99.90;;;;;;5014893;28;20195;-87
2023/01/19 03:47:33;;;;;;;8.07;5.77;;;-2.00;99.90;;;;;;5014809;28;20175;-87
2023/01/19 03:50:03;;;;;;;9.67;6.03;;;-2.00;99.90;;;;;;5014573;28;20175;-86
2023/01/19 03:52:32;;;;;;;10.93;6.73;;;-1.90;99.90;;;;;;4997133;28;20175;-87
2023/01/19 03:55:02;;;;;;;9.37;6.10;;;-2.00;99.90;;;;;;5014498;28;20224;-87
2023/01/19 03:57:28;;;;;;;9.67;6.23;;;-2.00;99.90;;;;;;4997400;28;20178;-87
2023/01/19 03:59:54;;;;;;;10.77;6.37;;;-1.90;99.90;;;;;;4996870;28;20210;-86
2023/01/19 04:02:20;;;;;;;11.97;6.30;;;-1.90;99.90;;;;;;5014641;28;20599;-87
2023/01/19 04:04:46;;;;;;;13.80;7.07;;;-1.90;99.90;;;;;;5014522;28;20704;-87
2023/01/19 04:07:11;;;;;;;11.67;6.80;;;-1.80;99.90;;;;;;4996995;28;20263;-87
2023/01/19 04:09:37;;;;;;;10.20;7.00;;;-1.80;99.90;;;;;;4996730;28;20172;-86
2023/01/19 04:12:03;;;;;;;10.73;7.00;;;-1.70;99.90;;;;;;4997009;28;20175;-87
2023/01/19 04:14:28;;;;;;;13.90;7.47;;;-1.70;99.90;;;;;;4996891;28;20179;-87
2023/01/19 04:16:54;;;;;;;15.40;7.93;;;-1.60;99.90;;;;;;4996724;28;20645;-87
2023/01/19 04:19:19;;;;;;;13.73;6.97;;;-1.60;99.90;;;;;;5014067;28;20198;-87
2023/01/19 04:21:48;;;;;;;10.63;6.57;;;-1.60;99.90;;;;;;4996567;28;20224;-87
2023/01/19 04:24:14;;;;;;;9.93;6.87;;;-1.50;99.90;;;;;;4996485;28;20175;-87
2023/01/19 04:26:39;;;;;;;8.73;6.27;;;-1.40;99.90;;;;;;5014333;28;20199;-87
2023/01/19 04:29:05;;;;;;;15.60;7.67;;;-1.50;99.90;;;;;;5014145;28;20398;-87
2023/01/19 04:31:30;;;;;;;10.87;7.03;;;-1.50;99.90;;;;;;4996408;28;20180;-87
2023/01/19 04:33:56;;;;;;;11.53;7.10;;;-1.50;99.90;;;;;;4996601;28;20171;-87
2023/01/19 04:36:21;;;;;;;10.33;6.93;;;-1.40;99.90;;;;;;5013849;28;20195;-87
2023/01/19 04:38:47;;;;;;;12.47;6.90;;;-1.40;99.90;;;;;;4996215;28;20171;-86
2023/01/19 04:41:13;;;;;;;14.03;7.27;;;-1.40;99.90;;;;;;5013925;28;20266;-87
2023/01/19 04:43:39;;;;;;;16.10;7.63;;;-1.40;99.90;;;;;;5013034;28;20180;-87
2023/01/19 04:46:05;;;;;;;13.70;7.67;;;-1.40;99.90;;;;;;5013679;28;20273;-87
2023/01/19 04:48:32;;;;;;;10.03;7.33;;;-1.30;99.90;;;;;;5013802;28;20250;-87
2023/01/19 04:50:57;;;;;;;11.03;7.07;;;-1.30;99.90;;;;;;5013453;28;20186;-87
2023/01/19 04:53:23;;;;;;;11.77;7.93;;;-1.30;99.90;;;;;;4995946;28;20182;-87
2023/01/19 04:55:55;;;;;;;11.47;8.00;;;-1.30;99.90;;;;;;4996058;28;20262;-87
2023/01/19 04:58:20;;;;;;;11.67;7.70;;;-1.30;99.90;;;;;;5013621;28;20237;-87
2023/01/19 05:00:46;;;;;;;11.30;7.53;;;-1.30;99.90;;;;;;4995665;28;20203;-87
2023/01/19 05:03:12;;;;;;;13.70;8.00;;;-1.30;99.90;;;;;;4995893;28;20590;-87
2023/01/19 05:05:37;;;;;;;12.77;7.80;;;-1.30;99.90;;;;;;4995817;28;20207;-87
2023/01/19 05:08:03;;;;;;;12.97;7.70;;;-1.30;99.90;;;;;;4995683;28;20230;-87
2023/01/19 05:10:28;;;;;;;13.13;7.97;;;-1.30;99.90;;;;;;4995835;28;20179;-87
2023/01/19 05:12:54;;;;;;;11.17;7.30;;;-1.30;99.90;;;;;;5013385;28;20210;-87
2023/01/19 05:15:20;;;;;;;12.57;7.60;;;-1.30;99.90;;;;;;5013201;28;20669;-87
2023/01/19 05:17:45;;;;;;;11.47;7.17;;;-1.20;99.90;;;;;;4995852;28;20186;-87
2023/01/19 05:20:12;;;;;;;9.77;6.87;;;-1.20;99.90;;;;;;4995370;28;20192;-87
2023/01/19 05:22:38;;;;;;;10.13;7.03;;;-1.20;99.90;;;;;;4995615;28;20257;-87
2023/01/19 05:25:05;;;;;;;12.47;7.80;;;-1.20;99.90;;;;;;4995401;28;20635;-87
2023/01/19 05:27:30;;;;;;;11.33;7.13;;;-1.20;99.90;;;;;;4995284;28;20547;-87
2023/01/19 05:29:56;;;;;;;10.90;7.00;;;-1.20;99.90;;;;;;4995370;28;20174;-87
2023/01/19 05:32:21;;;;;;;12.83;7.00;;;-1.10;99.90;;;;;;4995446;28;20593;-87
2023/01/19 05:34:47;;;;;;;9.97;6.13;;;-1.10;99.90;;;;;;4995202;28;20308;-87
2023/01/19 05:37:12;;;;;;;8.57;6.57;;;-1.00;99.90;;;;;;4995198;28;20181;-87
2023/01/19 05:39:38;;;;;;;9.23;6.03;;;-1.10;99.90;;;;;;5012817;28;20206;-87
2023/01/19 05:42:04;;;;;;;10.70;6.97;;;-1.00;99.90;;;;;;5012906;28;20197;-87
2023/01/19 05:44:29;;;;;;;10.73;6.53;;;-1.00;99.90;;;;;;4995441;28;20183;-87
2023/01/19 05:46:55;;;;;;;9.70;6.70;;;-1.00;99.90;;;;;;4995215;28;20188;-87
2023/01/19 05:49:21;;;;;;;11.47;7.23;;;-1.00;99.90;;;;;;5012674;28;20665;-87
2023/01/19 05:51:47;;;;;;;9.00;6.80;;;-1.00;99.90;;;;;;4994767;28;20177;-87
2023/01/19 05:54:16;;;;;;;12.57;6.13;;;-1.00;99.90;;;;;;4995169;28;20661;-88
2023/01/19 05:56:43;;;;;;;9.90;5.77;;;-0.90;99.90;;;;;;4995090;28;20241;-87
2023/01/19 05:59:09;;;;;;;9.93;6.90;;;-0.90;99.90;;;;;;4995013;28;20176;-87
2023/01/19 06:01:36;;;;;;;9.03;6.67;;;-0.90;99.90;;;;;;4995017;28;20175;-87
2023/01/19 06:04:01;;;;;;;9.63;6.33;;;-0.90;99.90;;;;;;5012539;28;20176;-87
2023/01/19 06:06:27;;;;;;;10.00;6.80;;;-0.90;99.90;;;;;;4995004;28;20685;-88
2023/01/19 06:08:53;;;;;;;11.63;7.23;;;-0.90;99.90;;;;;;5013932;28;20612;-89
2023/01/19 06:11:19;;;;;;;12.27;7.60;;;-0.90;99.90;;;;;;4997092;28;20234;-89
2023/01/19 06:13:46;;;;;;;11.47;6.67;;;-0.80;99.90;;;;;;4996857;28;20187;-88
2023/01/19 06:16:12;;;;;;;13.57;7.70;;;-0.80;99.90;;;;;;4996724;28;20339;-89
2023/01/19 06:18:37;;;;;;;11.47;7.43;;;-0.80;99.90;;;;;;4997140;28;20198;-89
2023/01/19 06:21:04;;;;;;;10.67;6.87;;;-0.80;99.90;;;;;;4996574;28;20356;-88
2023/01/19 06:23:31;;;;;;;10.17;7.10;;;-0.80;99.90;;;;;;4997173;28;20174;-89
2023/01/19 06:25:57;;;;;;;13.10;6.97;;;-0.80;99.90;;;;;;4995841;28;20190;-89
2023/01/19 06:28:24;;;;;;;11.07;7.13;;;-0.80;99.90;;;;;;5013136;28;20191;-89
2023/01/19 06:30:50;;;;;;;12.87;7.77;;;-0.80;99.90;;;;;;4995690;28;20199;-89
2023/01/19 06:33:16;;;;;;;11.33;7.60;;;-0.80;99.90;;;;;;4994398;28;20179;-89
2023/01/19 06:35:47;;;;;;;14.43;8.20;;;-0.80;99.90;;;;;;5005255;28;20206;-89
2023/01/19 06:38:13;;;;;;;10.47;7.10;;;-0.80;99.90;;;;;;5013328;28;20179;-89
2023/01/19 06:40:41;;;;;;;11.87;7.67;;;-0.80;99.90;;;;;;4994897;28;20250;-89
2023/01/19 06:43:07;;;;;;;12.80;8.60;;;-0.80;99.90;;;;;;5013201;28;20172;-89
2023/01/19 06:45:33;;;;;;;15.00;8.80;;;-0.80;99.90;;;;;;4995379;28;20577;-89
2023/01/19 06:47:59;;;;;;;15.17;8.80;;;-0.80;99.90;;;;;;4995401;28;20173;-88
2023/01/19 06:50:25;;;;;;;13.37;8.93;;;-0.80;99.90;;;;;;4995096;28;20177;-89
2023/01/19 06:52:51;;;;;;;13.73;8.60;;;-0.80;99.90;;;;;;4995224;28;20267;-89
2023/01/19 06:55:16;;;;;;;11.03;8.33;;;-0.80;99.90;;;;;;5012200;28;20192;-89
2023/01/19 06:57:43;;;;;;;12.87;8.10;;;-0.80;99.90;;;;;;5005598;28;20181;-89
2023/01/19 07:00:10;;;;;;;13.47;8.77;;;-0.80;99.90;;;;;;4996863;28;20200;-89
2023/01/19 07:02:36;;;;;;;13.03;9.23;;;-0.80;99.90;;;;;;4997105;28;20176;-87
2023/01/19 07:05:05;;;;;;;16.73;9.23;;;-0.80;99.90;;;;;;5012963;28;20194;-88
2023/01/19 07:07:31;;;;;;;12.63;8.93;;;-0.80;99.90;;;;;;5017885;28;20234;-85
2023/01/19 07:09:57;;;;;;;12.43;8.47;;;-0.80;99.90;;;;;;5015409;28;20171;-87
2023/01/19 07:12:22;;;;;;;16.37;8.00;;;-0.80;99.90;;;;;;4997641;28;20268;-83
2023/01/19 07:14:48;;;;;;;12.43;8.63;;;-0.80;99.90;;;;;;4997775;28;20247;-88
2023/01/19 07:17:14;;;;;;;13.00;9.27;;;-0.80;99.90;;;;;;5024614;23;20246;-82
2023/01/19 07:19:39;;;;;;;15.13;9.50;;;-0.80;99.90;;;;;;5000892;28;20208;-82
2023/01/19 07:22:05;;;;;;;16.03;9.43;;;-0.80;99.90;;;;;;5000697;28;20176;-82
2023/01/19 07:24:32;;;;;;;14.37;9.30;;;-0.70;99.90;;;;;;5018422;28;20690;-82
2023/01/19 07:26:58;;;;;;;14.93;9.90;;;-0.70;99.90;;;;;;4985899;28;20683;-81
2023/01/19 07:29:24;;;;;;;18.93;9.93;;;-0.70;99.90;;;;;;4982203;28;20181;-82
2023/01/19 07:31:50;;;;;;;15.70;11.03;;;-0.70;99.90;;;;;;4996103;28;20176;-82
2023/01/19 07:34:15;;;;;;;15.80;9.17;;;-0.70;99.90;;;;;;4995182;28;20226;-82
2023/01/19 07:36:41;;;;;;;16.93;10.43;;;-0.70;99.90;;;;;;4995761;28;20195;-84
2023/01/19 07:39:06;;;;;;;16.30;10.10;;;-0.70;99.90;;;;;;5004996;28;20546;-85
2023/01/19 07:41:32;;;;;;;12.37;8.67;;;-0.70;99.90;;;;;;4987327;28;20254;-83
2023/01/19 07:43:58;;;;;;;14.17;9.43;;;-0.70;99.90;;;;;;5007916;28;20173;-82
2023/01/19 07:46:23;;;;;;;15.03;10.00;;;-0.70;99.90;;;;;;4987735;28;20200;-84
2023/01/19 07:48:49;;;;;;;15.67;9.97;;;-0.70;99.90;;;;;;5002632;28;20215;-84
2023/01/19 07:51:17;;;;;;;14.27;9.37;;;-0.70;99.90;;;;;;4983328;28;20552;-82
2023/01/19 07:53:49;;;;;;;14.60;9.33;;;-0.70;99.90;;;;;;4986536;28;20189;-82
2023/01/19 07:56:14;;;;;;;14.77;9.30;;;-0.70;99.90;;;;;;4983707;28;20288;-82
2023/01/19 07:58:40;;;;;;;13.60;9.60;;;-0.70;99.90;;;;;;4984982;28;20232;-84
2023/01/19 08:01:11;;;;;;;13.13;9.23;;;-0.60;99.90;;;;;;4982005;28;20209;-83
2023/01/19 08:03:37;;;;;;;12.97;8.93;;;-0.60;99.90;;;;;;4982619;28;20201;-83
2023/01/19 08:06:04;;;;;;;18.20;9.60;;;-0.60;99.90;;;;;;4990616;28;20249;-84
2023/01/19 08:08:30;;;;;;;15.00;9.40;;;-0.60;99.90;;;;;;4998248;28;20617;-83
2023/01/19 08:10:56;;;;;;;14.93;8.93;;;-0.60;99.90;;;;;;4968405;28;20663;-81
2023/01/19 08:13:22;;;;;;;13.60;8.90;;;-0.60;99.90;;;;;;4966967;28;20177;-80
2023/01/19 08:15:52;;;;;;;12.73;8.37;;;-0.50;99.90;;;;;;4959055;28;20245;-83
2023/01/19 08:18:18;;;;;;;13.27;9.30;;;-0.50;99.90;;;;;;4958398;28;20205;-82
2023/01/19 08:20:44;;;;;;;15.57;8.97;;;-0.60;99.90;;;;;;4959455;28;20216;-82
2023/01/19 08:23:11;;;;;;;14.57;9.47;;;-0.50;99.90;;;;;;4976310;28;20173;-82
2023/01/19 08:25:43;;;;;;;13.33;9.07;;;-0.50;99.90;;;;;;4976177;28;20237;-82
2023/01/19 08:28:09;;;;;;;14.80;9.17;;;-0.50;99.90;;;;;;4976263;28;20662;-82
2023/01/19 08:30:36;;;;;;;13.30;8.43;;;-0.50;99.90;;;;;;4958645;28;20183;-82
2023/01/19 08:33:06;;;;;;;13.50;8.67;;;-0.50;99.90;;;;;;4976494;28;20184;-82
2023/01/19 08:35:41;;;;;;;15.87;9.00;;;-0.50;99.90;;;;;;4958877;28;20212;-82
2023/01/19 08:38:08;;;;;;;12.00;7.97;;;-0.50;99.90;;;;;;4958596;28;20176;-82
2023/01/19 08:40:37;;;;;;;13.33;8.30;;;-0.40;99.90;;;;;;4975645;28;20758;-82
2023/01/19 08:43:08;;;;;;;11.20;7.83;;;-0.40;99.90;;;;;;4958565;28;20566;-82
2023/01/19 08:45:36;;;;;;;14.10;8.43;;;-0.50;99.90;;;;;;4958816;28;20204;-83
2023/01/19 08:48:01;;;;;;;15.50;8.53;;;-0.40;99.90;;;;;;4958507;28;20658;-84
2023/01/19 08:50:28;;;;;;;11.17;7.30;;;-0.40;99.90;;;;;;4976151;28;20180;-83
2023/01/19 08:52:58;;;;;;;9.37;6.87;;;-0.30;99.90;;;;;;4958531;28;20215;-82
2023/01/19 08:55:25;;;;;;;8.40;6.23;;;-0.30;99.90;;;;;;4958747;28;20185;-83
2023/01/19 08:57:52;;;;;;;9.23;7.07;;;-0.30;99.90;;;;;;4958648;28;20218;-83
2023/01/19 09:00:18;;;;;;;11.17;6.70;;;-0.20;99.90;;;;;;4958394;28;20265;-82
2023/01/19 09:02:44;;;;;;;9.83;6.77;;;-0.20;99.90;;;;;;4958939;28;20178;-82
2023/01/19 09:05:09;;;;;;;10.80;6.73;;;-0.10;99.90;;;;;;4959191;28;20668;-82
2023/01/19 09:07:35;;;;;;;8.13;6.27;;;-0.10;99.90;;;;;;4976463;28;20178;-82
2023/01/19 09:10:05;;;;;;;10.43;7.13;;;-0.10;99.90;;;;;;4958979;28;20197;-83
2023/01/19 09:12:31;;;;;;;9.43;6.10;;;-0.10;99.90;;;;;;4959190;28;20263;-82
2023/01/19 09:14:56;;;;;;;8.57;6.10;;;0.00;99.90;;;;;;4959181;28;20182;-83
2023/01/19 09:17:22;;;;;;;8.77;6.13;;;0.00;99.90;;;;;;4976352;28;20689;-83
2023/01/19 09:19:47;;;;;;;9.50;6.40;;;0.10;99.90;;;;;;4958919;28;20201;-83
2023/01/19 09:22:13;;;;;;;9.83;6.17;;;0.30;99.90;;;;;;4958931;28;20175;-83
2023/01/19 09:24:38;;;;;;;9.80;6.53;;;0.40;99.90;;;;;;4958542;28;20231;-82
2023/01/19 09:27:04;;;;;;;9.33;6.13;;;0.40;99.90;;;;;;4958549;28;20194;-83
2023/01/19 09:29:30;;;;;;;10.10;6.80;;;0.40;99.90;;;;;;4958253;28;20175;-82
2023/01/19 09:31:56;;;;;;;9.37;6.70;;;0.40;99.90;;;;;;4959012;28;20181;-83
2023/01/19 09:34:24;;;;;;;9.90;6.23;;;0.40;99.90;;;;;;4959527;28;20176;-82
2023/01/19 09:36:50;;;;;;;8.83;6.13;;;0.40;99.90;;;;;;4958823;28;20657;-83
2023/01/19 09:39:16;;;;;;;10.13;6.57;;;0.40;99.90;;;;;;4959530;28;20239;-84
2023/01/19 09:42:20;;;;;;;9.47;6.83;;;0.40;99.90;;;;;;4959021;28;20261;-82
2023/01/19 09:44:47;;;;;;;9.27;6.47;;;0.30;99.90;;;;;;4921114;29;20186;-82
2023/01/19 09:47:15;;;;;;;9.30;6.40;;;0.30;99.90;;;;;;4952621;28;20583;-82
2023/01/19 09:50:25;;;;;;;8.70;6.37;;;0.40;99.90;;;;;;4960362;28;20174;-83
2023/01/19 09:52:59;;;;;;;8.67;6.00;;;0.40;99.90;;;;;;4960368;28;20213;-83
2023/01/19 09:55:26;;;;;;;11.67;6.80;;;0.40;99.90;;;;;;4978528;28;20179;-83
2023/01/19 09:57:52;;;;;;;8.60;6.37;;;0.40;99.90;;;;;;4960823;28;20183;-83
2023/01/19 10:00:19;;;;;;;10.00;6.60;;;0.50;99.90;;;;;;4960716;28;20572;-83
2023/01/19 10:02:55;;;;;;;8.43;5.90;;;0.50;99.90;;;;;;4960920;28;20500;-84
2023/01/19 10:05:43;;;;;;;9.43;5.73;;;0.50;99.90;;;;;;4977717;28;20254;-83
2023/01/19 10:08:18;;;;;;;7.70;5.53;;;0.60;99.90;;;;;;4960287;28;20175;-86
2023/01/19 10:11:02;;;;;;;10.10;6.70;;;0.60;99.90;;;;;;4960976;28;20178;-83
2023/01/19 10:13:48;;;;;;;9.73;6.63;;;0.70;99.90;;;;;;4978024;28;20176;-84
2023/01/19 10:16:16;;;;;;;8.60;6.97;;;0.60;99.90;;;;;;4960726;28;20226;-83
2023/01/19 10:18:51;;;;;;;12.43;6.67;;;0.70;99.90;;;;;;4962491;28;20277;-83
2023/01/19 10:21:50;;;;;;;9.37;6.40;;;0.80;99.90;;;;;;4980650;28;20210;-83
2023/01/19 10:24:26;;;;;;;12.13;6.47;;;0.80;99.90;;;;;;4931473;28;20187;-84
2023/01/19 10:26:55;;;;;;;9.63;6.13;;;0.80;99.90;;;;;;4961396;28;20609;-85
2023/01/19 10:29:35;;;;;;;9.90;7.20;;;0.80;99.90;;;;;;4961793;28;20179;-81
2023/01/19 10:32:12;;;;;;;8.13;6.13;;;0.80;99.90;;;;;;4978524;28;20227;-83
2023/01/19 10:34:39;;;;;;;10.27;7.17;;;0.80;99.90;;;;;;4978687;28;20250;-85
2023/01/19 10:37:24;;;;;;;9.70;6.33;;;0.80;99.90;;;;;;4975845;28;20205;-84
2023/01/19 10:40:08;;;;;;;10.90;6.93;;;0.80;99.90;;;;;;4998097;28;20214;-84
2023/01/19 10:42:34;;;;;;;11.00;6.63;;;0.90;99.90;;;;;;5005281;28;20171;-83
2023/01/19 10:45:00;;;;;;;9.37;6.63;;;0.70;99.90;;;;;;5006480;28;20182;-84
2023/01/19 10:47:38;;;;;;;9.87;6.97;;;0.70;99.90;;;;;;4981560;28;20620;-83
2023/01/19 10:50:29;;;;;;;9.23;6.57;;;0.70;99.90;;;;;;4979186;28;20182;-82
2023/01/19 10:53:04;;;;;;;9.90;6.20;;;0.80;99.90;;;;;;4981961;28;20194;-83
2023/01/19 10:55:33;;;;;;;8.80;5.87;;;0.80;99.90;;;;;;4961608;28;20233;-84
2023/01/19 10:57:59;;;;;;;7.70;5.23;;;0.80;99.90;;;;;;4962331;28;20649;-83
2023/01/19 11:00:37;;;;;;;9.30;6.13;;;0.80;99.90;;;;;;4959512;28;20563;-84
2023/01/19 11:03:30;;;;;;;10.20;6.20;;;0.70;99.90;;;;;;4987069;28;20197;-82
2023/01/19 11:06:21;;;;;;;8.10;5.80;;;0.70;99.90;;;;;;4994132;28;20234;-84
2023/01/19 11:08:51;;;;;;;8.73;6.30;;;0.60;99.90;;;;;;4981231;28;20266;-83
2023/01/19 11:11:19;;;;;;;9.40;6.30;;;0.60;99.90;;;;;;4995326;28;20279;-83
2023/01/19 11:14:00;;;;;;;9.97;6.20;;;0.60;99.90;;;;;;4996451;28;20182;-83
2023/01/19 11:16:29;;;;;;;10.77;7.17;;;0.60;99.90;;;;;;4995776;28;20222;-84
2023/01/19 11:18:57;;;;;;;7.67;6.17;;;0.50;99.90;;;;;;4995573;28;20180;-83
2023/01/19 11:21:25;;;;;;;10.07;6.37;;;0.50;99.90;;;;;;4994973;28;20211;-84
2023/01/19 11:23:56;;;;;;;9.40;6.63;;;0.50;99.90;;;;;;4996899;28;20183;-83
2023/01/19 11:26:43;;;;;;;8.70;6.67;;;0.40;99.90;;;;;;4996876;28;20234;-84
2023/01/19 11:29:21;;;;;;;10.93;6.80;;;0.30;99.90;;;;;;4995392;28;20173;-84
2023/01/19 11:31:47;;;;;;;11.10;6.53;;;0.40;99.90;;;;;;4995764;28;20179;-82
2023/01/19 11:34:33;;;;;;;10.43;7.13;;;0.50;99.90;;;;;;4996331;28;20184;-83
2023/01/19 11:37:04;;;;;;;12.50;7.50;;;0.60;99.90;;;;;;4996832;28;20249;-83
2023/01/19 11:39:43;;;;;;;12.83;7.63;;;0.60;99.90;;;;;;4994124;28;20234;-83
2023/01/19 11:42:11;;;;;;;12.00;5.50;;;0.80;99.90;;;;;;4972890;28;20191;-82
2023/01/19 11:45:07;;;;;;;12.33;7.80;;;1.80;99.90;;;;;;4978761;28;20241;-81
2023/01/19 11:47:42;;;;;;;10.03;6.90;;;3.50;99.90;;;;;;4961915;28;20416;-84
2023/01/19 11:50:30;;;;;;;9.33;6.80;;;2.80;99.90;;;;;;4979841;28;20190;-82
2023/01/19 11:53:09;;;;;;;9.60;6.83;;;2.00;99.90;;;;;;4975984;28;20175;-83
2023/01/19 11:55:55;;;;;;;10.40;6.50;;;1.50;99.90;;;;;;4982755;28;20207;-84
2023/01/19 11:58:22;;;;;;;10.37;6.47;;;1.00;99.90;;;;;;4973719;28;20183;-82
2023/01/19 12:00:48;;;;;;;12.63;7.17;;;0.90;99.90;;;;;;4979755;28;20207;-82
2023/01/19 12:03:40;;;;;;;10.23;7.00;;;0.70;99.90;;;;;;4997637;28;20186;-83
2023/01/19 12:06:07;;;;;;;11.70;7.20;;;0.70;99.90;;;;;;4995298;28;20270;-84
2023/01/19 12:08:38;;;;;;;13.70;7.17;;;0.60;99.90;;;;;;4996487;28;20195;-83
2023/01/19 12:11:07;;;;;;;12.03;7.37;;;0.50;99.90;;;;;;4995335;28;20222;-84
2023/01/19 12:13:34;;;;;;;11.87;7.60;;;0.50;99.90;;;;;;4995549;28;20278;-83
2023/01/19 12:16:07;;;;;;;12.03;8.20;;;0.50;99.90;;;;;;4998311;28;20686;-83
2023/01/19 12:18:41;;;;;;;10.20;7.23;;;0.50;99.90;;;;;;4996303;28;20187;-83
2023/01/19 12:21:06;;;;;;;10.27;7.23;;;0.50;99.90;;;;;;4996021;28;20222;-83
2023/01/19 12:23:50;;;;;;;11.27;7.63;;;0.50;99.90;;;;;;4997728;28;20788;-84
2023/01/19 12:26:35;;;;;;;10.87;7.60;;;0.40;99.90;;;;;;4996508;28;20203;-83
2023/01/19 12:29:12;;;;;;;10.70;7.53;;;0.40;99.90;;;;;;4998723;28;20206;-83
2023/01/19 12:31:39;;;;;;;10.47;7.77;;;0.40;99.90;;;;;;4996574;28;20188;-83
2023/01/19 12:34:30;;;;;;;11.77;7.33;;;0.30;99.90;;;;;;4988133;28;20221;-84
2023/01/19 12:37:02;;;;;;;10.93;7.40;;;0.40;99.90;;;;;;4968991;28;20199;-83
2023/01/19 12:39:28;;;;;;;12.57;8.33;;;0.40;99.90;;;;;;4979544;28;20648;-83
2023/01/19 12:42:16;;;;;;;13.07;8.23;;;0.50;99.90;;;;;;4962279;28;20190;-83
2023/01/19 12:44:44;;;;;;;11.10;7.60;;;0.50;99.90;;;;;;4962044;28;20189;-83
2023/01/19 12:47:09;;;;;;;10.10;7.40;;;0.40;99.90;;;;;;4962193;28;20226;-84
2023/01/19 12:49:40;;;;;;;11.67;7.53;;;0.40;99.90;;;;;;4962256;28;20210;-83
2023/01/19 12:52:21;;;;;;;10.63;7.53;;;0.50;99.90;;;;;;4990971;28;20186;-83
2023/01/19 12:54:58;;;;;;;10.93;7.57;;;0.50;99.90;;;;;;4970803;28;20175;-83
2023/01/19 12:57:30;;;;;;;11.13;7.17;;;0.50;99.90;;;;;;4988295;28;20583;-84
2023/01/19 13:00:17;;;;;;;11.73;7.47;;;0.50;99.90;;;;;;4980526;28;20623;-84
2023/01/19 13:02:45;;;;;;;11.33;7.50;;;0.50;99.90;;;;;;4979218;28;20177;-84